EFET

Enontekio Airport

Enontekio, Finland
METAR EFET 131120Z AUTO 17003KT CAVOK M13/M14 Q1024
Observed Flight Rules
Dec-13 @ 11:20 UTC (22 minutes ago) Visual Flight Rules
Wind Visibility Clouds
170° at 3 knots 10,000+ meters
  • Clear skies
Temperatures Readings
Current -13°C / 9°F
Dewpoint -14°C / 7°F
Humidity 92%
Altimeter 30.24" Hg
Pressure 1024 hPa
Elevation 306
METAR EFET 131120Z AUTO 17003KT CAVOK M13/M14 Q1024
Observed Flight Rules
Dec-13 @ 11:20 UTC
(22 minutes ago)
VFR
Wind Visibility
170° at 3 knots 10,000+ meters
Clouds
  • Clear skies
Temperature Dewpoint
-13°C / 9°F -14°C / 7°F
Humidity Altimeter Pressure
92% 30.24" Hg 1024 hPa